createdAt,value
2023-04-09T00:03:30.842Z,102619.28
2023-04-09T00:08:33.759Z,102611.47
2023-04-09T00:13:39.496Z,102602.66
2023-04-09T00:18:44.157Z,102600.06
2023-04-09T00:23:46.947Z,102605.09
2023-04-09T00:28:49.938Z,102599.09
2023-04-09T00:33:54.197Z,102593.06
2023-04-09T00:38:56.948Z,102592.22
2023-04-09T00:43:59.731Z,102581.84
2023-04-09T00:49:04.778Z,102578.34
2023-04-09T00:54:09.293Z,102583.56
2023-04-09T00:59:12.764Z,102574.78
2023-04-09T01:04:17.064Z,102578.34
2023-04-09T01:09:24.737Z,102572.25
2023-04-09T01:14:31.362Z,102567.81
2023-04-09T01:19:45.770Z,102579.91
2023-04-09T01:25:01.789Z,102580.00
2023-04-09T01:30:15.415Z,102577.47
2023-04-09T01:35:19.803Z,102571.44
2023-04-09T01:40:22.697Z,102567.97
2023-04-09T01:45:27.201Z,102567.03
2023-04-09T01:50:30.785Z,102576.59
2023-04-09T01:55:33.597Z,102581.81
2023-04-09T02:00:40.361Z,102580.09
2023-04-09T02:05:47.103Z,102580.00
2023-04-09T02:10:53.702Z,102586.97
2023-04-09T02:15:57.948Z,102581.75
2023-04-09T02:21:01.506Z,102575.66
2023-04-09T02:26:04.358Z,102576.47
2023-04-09T02:31:08.552Z,102578.19
2023-04-09T02:36:12.449Z,102578.25
2023-04-09T02:41:15.392Z,102565.22
2023-04-09T02:46:19.591Z,102553.03
2023-04-09T02:51:22.660Z,102557.47
2023-04-09T02:56:25.633Z,102551.34
2023-04-09T03:01:29.987Z,102545.25
2023-04-09T03:06:32.926Z,102545.22
2023-04-09T03:11:35.752Z,102543.47
2023-04-09T03:16:39.933Z,102539.97
2023-04-09T03:21:42.780Z,102528.72
2023-04-09T03:26:46.336Z,102529.53
2023-04-09T03:31:53.088Z,102523.41
2023-04-09T03:36:56.075Z,102513.84
2023-04-09T03:42:02.141Z,102511.22
2023-04-09T03:47:12.264Z,102505.16
2023-04-09T03:52:15.703Z,102509.50
2023-04-09T03:57:21.627Z,102511.25
2023-04-09T04:02:32.005Z,102508.66
2023-04-09T04:07:39.111Z,102503.41
2023-04-09T04:12:46.933Z,102501.69
2023-04-09T04:17:56.614Z,102507.78
2023-04-09T04:23:11.607Z,102506.97
2023-04-09T04:28:22.245Z,102502.53
2023-04-09T04:33:26.790Z,102513.84
2023-04-09T04:38:31.947Z,102515.59
2023-04-09T04:43:38.094Z,102504.34
2023-04-09T04:48:42.648Z,102507.81
2023-04-09T04:53:46.555Z,102510.44
2023-04-09T04:58:50.992Z,102517.44
2023-04-09T05:03:57.554Z,102512.22
2023-04-09T05:09:07.920Z,102511.34
2023-04-09T05:14:21.007Z,102513.97
2023-04-09T05:19:26.256Z,102511.34
2023-04-09T05:24:35.160Z,102511.34
2023-04-09T05:29:38.869Z,102524.44
2023-04-09T05:34:45.485Z,102520.94
2023-04-09T05:39:48.824Z,102519.19
2023-04-09T05:44:51.861Z,102527.91
2023-04-09T05:49:58.034Z,102524.41
2023-04-09T05:55:00.963Z,102520.06
2023-04-09T06:00:18.287Z,102522.69
2023-04-09T06:05:23.449Z,102525.28
2023-04-09T06:10:27.823Z,102520.06
2023-04-09T06:15:30.810Z,102531.44
2023-04-09T06:20:35.215Z,102538.41
2023-04-09T06:25:38.195Z,102534.88
2023-04-09T06:30:41.317Z,102541.84
2023-04-09T06:35:45.603Z,102548.78
2023-04-09T06:40:48.384Z,102547.09
2023-04-09T06:45:51.484Z,102537.53
2023-04-09T06:50:55.788Z,102544.50
2023-04-09T06:55:58.710Z,102551.47
2023-04-09T07:01:01.815Z,102539.28
2023-04-09T07:06:06.305Z,102539.28
2023-04-09T07:11:09.191Z,102537.53
2023-04-09T07:16:12.039Z,102541.03
2023-04-09T07:21:16.357Z,102543.63
2023-04-09T07:26:19.195Z,102546.25
2023-04-09T07:31:22.042Z,102551.47
2023-04-09T07:36:26.673Z,102546.25
2023-04-09T07:41:29.487Z,102551.47
2023-04-09T07:46:32.369Z,102540.09
2023-04-09T07:51:36.620Z,102542.72
2023-04-09T07:56:39.383Z,102541.00
2023-04-09T08:01:42.357Z,102539.28
2023-04-09T08:06:50.008Z,102543.63
2023-04-09T08:11:53.335Z,102532.34
2023-04-09T08:16:56.417Z,102549.78
2023-04-09T08:22:00.908Z,102548.94
2023-04-09T08:27:04.636Z,102538.47
2023-04-09T08:32:08.210Z,102543.69
2023-04-09T08:37:12.503Z,102534.09
2023-04-09T08:42:16.140Z,102540.19
2023-04-09T08:47:19.353Z,102536.69
2023-04-09T08:52:32.007Z,102542.78
2023-04-09T08:57:38.736Z,102549.72
2023-04-09T09:03:02.812Z,102546.31
2023-04-09T09:08:08.456Z,102540.22
2023-04-09T09:13:22.441Z,102535.00
2023-04-09T09:18:39.387Z,102534.13
2023-04-09T09:23:43.857Z,102534.09
2023-04-09T09:28:48.171Z,102535.84
2023-04-09T09:33:51.729Z,102541.13
2023-04-09T09:38:57.303Z,102539.34
2023-04-09T09:44:00.566Z,102527.16
2023-04-09T09:49:03.443Z,102536.72
2023-04-09T09:54:09.249Z,102536.75
2023-04-09T09:59:17.188Z,102519.31
2023-04-09T10:04:21.361Z,102511.38
2023-04-09T10:09:28.427Z,102497.28
2023-04-09T10:14:31.401Z,102500.84
2023-04-09T10:19:38.385Z,102492.94
2023-04-09T10:24:42.647Z,102484.19
2023-04-09T10:29:46.310Z,102473.63
2023-04-09T10:34:50.603Z,102466.56
2023-04-09T10:39:56.335Z,102460.38
2023-04-09T10:45:07.304Z,102463.56
2023-04-09T10:50:17.787Z,102453.88
2023-04-09T10:55:44.435Z,102450.13
2023-04-09T11:00:48.861Z,102444.75
2023-04-09T11:06:03.218Z,102448.00
2023-04-09T11:11:07.461Z,102452.25
2023-04-09T11:16:10.299Z,102440.63
2023-04-09T11:21:13.517Z,102436.28
2023-04-09T11:26:17.645Z,102419.59
2023-04-09T11:31:20.518Z,102422.44
2023-04-09T11:36:23.515Z,102413.06
2023-04-09T11:41:38.106Z,102396.16
2023-04-09T11:46:42.750Z,102404.56
2023-04-09T11:51:45.616Z,102397.59
2023-04-09T11:56:55.679Z,102399.66
2023-04-09T12:01:58.990Z,102400.16
2023-04-09T12:07:02.047Z,102406.34
2023-04-09T12:12:11.236Z,102404.94
2023-04-09T12:17:14.136Z,102411.56
2023-04-09T12:22:17.004Z,102408.72
2023-04-09T12:27:21.192Z,102400.09
2023-04-09T12:32:24.057Z,102409.19
2023-04-09T12:37:28.649Z,102407.84
2023-04-09T12:42:32.809Z,102404.56
2023-04-09T12:47:35.719Z,102407.84
2023-04-09T12:52:38.617Z,102399.63
2023-04-09T12:57:44.591Z,102397.63
2023-04-09T13:02:47.663Z,102399.94
2023-04-09T13:07:51.452Z,102393.19
2023-04-09T13:12:55.669Z,102399.16
2023-04-09T13:17:58.506Z,102391.66
2023-04-09T13:23:01.381Z,102392.97
2023-04-09T13:28:05.579Z,102371.78
2023-04-09T13:33:08.305Z,102356.94
2023-04-09T13:38:11.215Z,102353.56
2023-04-09T13:43:15.501Z,102346.09
2023-04-09T13:48:18.336Z,102338.38
2023-04-09T13:53:23.756Z,102332.44
2023-04-09T13:58:27.918Z,102318.94
2023-04-09T14:03:30.921Z,102321.56
2023-04-09T14:08:33.800Z,102318.88
2023-04-09T14:13:37.984Z,102315.19
2023-04-09T14:18:41.699Z,102302.97
2023-04-09T14:23:44.581Z,102302.28
2023-04-09T14:28:48.785Z,102299.78
2023-04-09T14:33:51.730Z,102286.31
2023-04-09T14:38:57.456Z,102275.38
2023-04-09T14:44:02.060Z,102258.53
2023-04-09T14:49:04.842Z,102250.69
2023-04-09T14:54:07.749Z,102242.78
2023-04-09T14:59:11.858Z,102245.38
2023-04-09T15:04:15.035Z,102236.41
2023-04-09T15:09:18.047Z,102226.31
2023-04-09T15:14:23.730Z,102229.19
2023-04-09T15:19:26.629Z,102229.81
2023-04-09T15:24:29.515Z,102226.78
2023-04-09T15:29:33.944Z,102233.66
2023-04-09T15:34:36.784Z,102230.47
2023-04-09T15:39:39.723Z,102212.97
2023-04-09T15:44:44.666Z,102221.03
2023-04-09T15:50:12.781Z,102219.19
2023-04-09T15:55:16.047Z,102225.34
2023-04-09T16:00:20.360Z,102221.94
2023-04-09T16:05:23.369Z,102217.78
2023-04-09T16:10:26.453Z,102207.22
2023-04-09T16:15:31.115Z,102201.69
2023-04-09T16:20:33.934Z,102195.75
2023-04-09T16:25:37.384Z,102194.03
2023-04-09T16:30:41.979Z,102187.97
2023-04-09T16:35:44.902Z,102190.59
2023-04-09T16:40:47.802Z,102187.69
2023-04-09T16:45:52.568Z,102183.22
2023-04-09T16:50:55.427Z,102192.81
2023-04-09T16:55:58.241Z,102190.66
2023-04-09T17:01:02.592Z,102192.16
2023-04-09T17:06:05.998Z,102187.28
2023-04-09T17:11:08.992Z,102191.78
2023-04-09T17:16:14.327Z,102188.75
2023-04-09T17:21:18.410Z,102185.69
2023-04-09T17:26:21.370Z,102176.06
2023-04-09T17:31:26.652Z,102184.84
2023-04-09T17:36:29.704Z,102188.63
2023-04-09T17:41:32.577Z,102189.72
2023-04-09T17:46:36.814Z,102184.03
2023-04-09T17:51:39.821Z,102185.84
2023-04-09T17:56:42.709Z,102182.53
2023-04-09T18:01:47.021Z,102189.03
2023-04-09T18:06:49.961Z,102188.66
2023-04-09T18:11:56.281Z,102179.97
2023-04-09T18:17:01.154Z,102183.59
2023-04-09T18:22:04.061Z,102184.78
2023-04-09T18:27:07.013Z,102181.56
2023-04-09T18:32:11.162Z,102185.22
2023-04-09T18:37:14.399Z,102187.00
2023-04-09T18:42:17.148Z,102195.94
2023-04-09T18:47:21.362Z,102196.03
2023-04-09T18:52:24.327Z,102193.75
2023-04-09T18:57:27.340Z,102188.50
2023-04-09T19:02:31.738Z,102185.19
2023-04-09T19:07:34.912Z,102191.28
2023-04-09T19:12:38.772Z,102181.78
2023-04-09T19:17:43.098Z,102191.25
2023-04-09T19:22:47.862Z,102192.16
2023-04-09T19:27:53.539Z,102193.91
2023-04-09T19:32:57.766Z,102183.59
2023-04-09T19:38:01.602Z,102178.34
2023-04-09T19:43:06.221Z,102177.50
2023-04-09T19:48:10.639Z,102168.81
2023-04-09T19:53:13.627Z,102157.50
2023-04-09T19:58:16.562Z,102160.06
2023-04-09T20:03:21.010Z,102163.53
2023-04-09T20:08:23.997Z,102168.75
2023-04-09T20:13:26.844Z,102165.22
2023-04-09T20:18:31.520Z,102162.63
2023-04-09T20:23:35.745Z,102158.13
2023-04-09T20:28:38.591Z,102161.66
2023-04-09T20:33:42.852Z,102159.09
2023-04-09T20:38:45.849Z,102155.63
2023-04-09T20:43:48.635Z,102160.03
2023-04-09T20:48:53.086Z,102156.53
2023-04-09T20:53:56.181Z,102160.16
2023-04-09T20:58:59.473Z,102156.69
2023-04-09T21:04:03.840Z,102152.38
2023-04-09T21:09:06.843Z,102143.69
2023-04-09T21:14:11.091Z,102141.09
2023-04-09T21:19:15.504Z,102141.09
2023-04-09T21:24:18.366Z,102145.47
2023-04-09T21:29:21.906Z,102138.50
2023-04-09T21:34:26.224Z,102135.06
2023-04-09T21:39:29.886Z,102151.63
2023-04-09T21:44:32.745Z,102150.00
2023-04-09T21:49:40.177Z,102133.41
2023-04-09T21:54:43.186Z,102129.19
2023-04-09T21:59:46.049Z,102130.94
2023-04-09T22:04:50.220Z,102123.97
2023-04-09T22:09:55.268Z,102124.81
2023-04-09T22:14:58.067Z,102123.22
2023-04-09T22:20:02.671Z,102117.13
2023-04-09T22:25:06.997Z,102104.13
2023-04-09T22:30:10.296Z,102100.69
2023-04-09T22:35:18.028Z,102094.69
2023-04-09T22:40:20.895Z,102092.91
2023-04-09T22:45:24.005Z,102097.28
2023-04-09T22:50:28.985Z,102095.50
2023-04-09T22:55:31.898Z,102089.38
2023-04-09T23:00:34.893Z,102092.81
2023-04-09T23:05:39.643Z,102088.53
2023-04-09T23:10:42.515Z,102067.53
2023-04-09T23:15:45.499Z,102072.75
2023-04-09T23:20:49.668Z,102066.81
2023-04-09T23:25:52.539Z,102067.63
2023-04-09T23:30:55.788Z,102068.50
2023-04-09T23:36:00.124Z,102064.94
2023-04-09T23:41:25.361Z,102056.38
2023-04-09T23:46:28.445Z,102038.16
2023-04-09T23:51:32.724Z,102034.72
2023-04-09T23:56:36.185Z,102039.91
